Time;durP1;ratioP1;P1;durP2;ratioP2;P2;SDS_P1;SDS_P2;PMS_P1;PMS_P2;Temp;Humidity;BMP_temperature;BMP_pressure;BME280_temperature;BME280_humidity;BME280_pressure;Samples;Min_cycle;Max_cycle;Signal;HPM_P1;HPM_P2
2021/08/22 00:00:30;;;;;;;4.77;3.33;;;;;;;17.83;100.00;96155.56;4933954;29;20590;-75
2021/08/22 00:02:56;;;;;;;5.55;1.80;;;;;;;17.49;94.43;96166.25;4933802;29;20789;-76
2021/08/22 00:05:22;;;;;;;2.60;1.77;;;;;;;16.99;100.00;96160.84;4934696;29;20428;-75
2021/08/22 00:07:47;;;;;;;9.53;2.77;;;;;;;16.32;100.00;96146.19;4933756;29;20431;-76
2021/08/22 00:10:13;;;;;;;8.07;1.87;;;;;;;15.93;100.00;96137.91;4933477;29;20505;-76
2021/08/22 00:12:39;;;;;;;4.43;2.50;;;;;;;15.59;100.00;96157.94;4935044;29;20442;-75
2021/08/22 00:15:05;;;;;;;6.90;2.50;;;;;;;15.60;100.00;96164.81;4934736;29;20428;-75
2021/08/22 00:17:32;;;;;;;3.22;2.35;;;;;;;15.83;100.00;96164.84;4934861;29;20482;-76
2021/08/22 00:19:57;;;;;;;3.00;2.20;;;;;;;15.88;100.00;96147.06;4934506;29;20463;-76
2021/08/22 00:22:23;;;;;;;5.40;2.25;;;;;;;15.71;100.00;96130.09;4934503;29;20423;-75
2021/08/22 00:24:48;;;;;;;3.23;2.20;;;;;;;15.96;100.00;96131.63;4934491;29;20522;-75
2021/08/22 00:27:14;;;;;;;3.93;2.47;;;;;;;15.80;100.00;96129.38;4934171;29;20517;-75
2021/08/22 00:29:39;;;;;;;4.40;2.60;;;;;;;15.97;100.00;96122.81;4934488;29;20419;-76
2021/08/22 00:32:06;;;;;;;4.33;2.53;;;;;;;16.17;100.00;96113.44;4932903;29;20936;-76
2021/08/22 00:34:33;;;;;;;5.13;2.33;;;;;;;16.36;100.00;96118.00;4934174;29;20445;-76
2021/08/22 00:36:58;;;;;;;5.07;2.55;;;;;;;16.38;100.00;96111.69;4933986;29;20450;-76
2021/08/22 00:39:25;;;;;;;7.88;2.50;;;;;;;16.48;100.00;96090.88;4934242;29;20427;-75
2021/08/22 00:41:51;;;;;;;4.10;2.50;;;;;;;16.53;100.00;96093.94;4932955;29;20446;-76
2021/08/22 00:44:17;;;;;;;4.53;2.47;;;;;;;16.44;100.00;96084.22;4932871;29;20431;-76
2021/08/22 00:46:42;;;;;;;3.20;2.50;;;;;;;16.45;100.00;96078.88;4933869;29;20841;-75
2021/08/22 00:49:08;;;;;;;3.77;2.60;;;;;;;16.55;100.00;96062.44;4932833;29;20550;-76
2021/08/22 00:51:35;;;;;;;4.00;2.70;;;;;;;16.83;100.00;96061.00;4934013;29;20427;-76
2021/08/22 00:54:01;;;;;;;6.75;3.25;;;;;;;16.61;100.00;96073.25;4933857;29;20431;-76
2021/08/22 00:56:27;;;;;;;3.73;2.57;;;;;;;16.57;100.00;96068.38;4932608;29;20431;-76
2021/08/22 00:58:52;;;;;;;3.70;2.50;;;;;;;16.59;100.00;96063.84;4934542;29;20522;-76
2021/08/22 01:01:21;;;;;;;5.35;2.83;;;;;;;16.61;100.00;96049.72;4934399;29;20427;-76
2021/08/22 01:03:53;;;;;;;4.53;2.78;;;;;;;16.64;100.00;96031.13;4933953;29;20419;-76
2021/08/22 01:06:31;;;;;;;3.05;2.60;;;;;;;16.45;100.00;96031.81;4933596;29;20466;-76
2021/08/22 01:09:02;;;;;;;4.25;3.00;;;;;;;16.51;100.00;96030.50;4933890;29;20458;-76
2021/08/22 01:11:31;;;;;;;3.70;2.70;;;;;;;16.63;100.00;96020.81;4934084;29;20436;-76
2021/08/22 01:14:02;;;;;;;3.97;2.63;;;;;;;16.69;100.00;96021.13;4932861;29;20507;-77
2021/08/22 01:16:32;;;;;;;4.22;2.70;;;;;;;16.69;100.00;96021.13;4933988;29;20431;-77
2021/08/22 01:19:01;;;;;;;3.70;2.63;;;;;;;16.50;100.00;96017.53;4934052;29;20430;-76
2021/08/22 01:21:27;;;;;;;5.50;3.30;;;;;;;16.47;100.00;96005.56;4933689;29;20430;-76
2021/08/22 01:23:56;;;;;;;4.97;3.10;;;;;;;16.53;100.00;96002.41;4933645;29;20423;-75
2021/08/22 01:26:26;;;;;;;4.75;2.92;;;;;;;16.38;100.00;96008.91;4932172;29;20933;-75
2021/08/22 01:28:52;;;;;;;4.55;2.88;;;;;;;16.28;100.00;96019.31;4933769;29;20426;-76
2021/08/22 01:31:21;;;;;;;3.63;2.47;;;;;;;16.23;100.00;96007.56;4933568;29;20841;-76
2021/08/22 01:33:49;;;;;;;5.13;2.53;;;;;;;16.04;100.00;96011.66;4932109;29;21004;-76
2021/08/22 01:36:17;;;;;;;8.45;2.50;;;;;;;16.08;100.00;96001.78;4933782;29;20431;-76
2021/08/22 01:38:43;;;;;;;5.10;2.58;;;;;;;16.21;100.00;96005.91;4934157;29;20947;-76
2021/08/22 01:41:09;;;;;;;3.40;2.53;;;;;;;16.32;100.00;96004.22;4934346;29;20424;-76
2021/08/22 01:43:36;;;;;;;4.07;2.80;;;;;;;16.37;100.00;96009.88;4932350;29;20439;-76
2021/08/22 01:46:02;;;;;;;3.97;2.35;;;;;;;16.30;100.00;96014.78;4933360;29;20420;-76
2021/08/22 01:48:28;;;;;;;5.65;2.90;;;;;;;16.32;100.00;96009.44;4932400;29;20435;-76
2021/08/22 01:50:57;;;;;;;3.97;2.40;;;;;;;16.27;100.00;96019.41;4933376;29;20443;-76
2021/08/22 01:53:22;;;;;;;6.10;2.65;;;;;;;16.34;100.00;96024.03;4933659;29;20506;-76
2021/08/22 01:55:48;;;;;;;3.40;2.47;;;;;;;16.36;100.00;96010.84;4933367;29;21009;-75
2021/08/22 01:58:13;;;;;;;3.55;2.30;;;;;;;16.35;100.00;96019.63;4932112;29;20419;-76
2021/08/22 02:00:39;;;;;;;7.50;2.60;;;;;;;16.25;100.00;96005.66;4933382;29;20901;-76
2021/08/22 02:03:09;;;;;;;4.67;2.50;;;;;;;16.28;100.00;95997.53;4933348;29;20431;-76
2021/08/22 02:05:37;;;;;;;3.45;2.53;;;;;;;16.40;100.00;95997.38;4931803;29;20423;-76
2021/08/22 02:08:10;;;;;;;3.33;2.30;;;;;;;16.44;100.00;96003.19;4932045;29;20443;-76
2021/08/22 02:10:42;;;;;;;5.37;3.17;;;;;;;16.48;100.00;96007.22;4934145;29;20433;-76
2021/08/22 02:13:10;;;;;;;3.13;2.50;;;;;;;16.48;100.00;96007.22;4937141;29;20818;-76
2021/08/22 02:15:42;;;;;;;4.75;2.40;;;;;;;16.49;100.00;95992.34;4935453;29;20470;-76
2021/08/22 02:18:12;;;;;;;4.18;2.75;;;;;;;16.32;100.00;95998.97;4937164;29;20419;-76
2021/08/22 02:20:38;;;;;;;7.13;2.58;;;;;;;16.28;100.00;95995.78;4937064;29;20451;-76
2021/08/22 02:23:06;;;;;;;4.15;2.72;;;;;;;16.30;100.00;95986.03;4936782;29;20483;-76
2021/08/22 02:25:32;;;;;;;4.30;2.87;;;;;;;16.30;100.00;95995.66;4936493;29;20470;-76
2021/08/22 02:27:58;;;;;;;3.80;2.83;;;;;;;16.20;100.00;95991.19;4936654;29;20428;-76
2021/08/22 02:30:24;;;;;;;3.95;2.92;;;;;;;15.96;100.00;95977.50;4936483;29;20431;-76
2021/08/22 02:32:50;;;;;;;6.10;2.80;;;;;;;15.85;100.00;95983.59;4936436;29;20988;-76
2021/08/22 02:35:15;;;;;;;5.13;2.50;;;;;;;15.81;100.00;95984.78;4937382;29;20523;-77
2021/08/22 02:37:41;;;;;;;4.20;2.70;;;;;;;15.75;100.00;95984.44;4937283;29;20423;-77
2021/08/22 02:40:09;;;;;;;5.22;2.35;;;;;;;15.70;100.00;95979.59;4937439;29;20497;-76
2021/08/22 02:42:34;;;;;;;3.88;2.30;;;;;;;15.72;100.00;95978.53;4935561;29;20427;-76
2021/08/22 02:45:00;;;;;;;5.90;2.28;;;;;;;15.89;100.00;95978.94;4935341;29;20439;-77
2021/08/22 02:47:25;;;;;;;3.60;2.30;;;;;;;15.97;100.00;95979.97;4936589;29;20431;-76
2021/08/22 02:49:50;;;;;;;2.90;2.20;;;;;;;16.05;100.00;95976.75;4935392;29;20482;-75
2021/08/22 02:52:16;;;;;;;3.77;2.57;;;;;;;16.05;100.00;95976.75;4935093;29;20427;-76
2021/08/22 02:54:41;;;;;;;4.63;2.50;;;;;;;15.98;100.00;95978.19;4956332;23;20490;-76
2021/08/22 02:57:08;;;;;;;4.83;2.60;;;;;;;15.90;100.00;95972.75;4942706;29;20435;-76
2021/08/22 02:59:34;;;;;;;6.45;2.50;;;;;;;15.93;100.00;95977.75;4939660;29;20466;-76
2021/08/22 03:01:59;;;;;;;4.07;2.33;;;;;;;15.86;100.00;95974.78;4936706;29;20462;-76
2021/08/22 03:04:25;;;;;;;2.88;2.13;;;;;;;15.91;100.00;95977.06;4936525;29;20785;-76
2021/08/22 03:06:50;;;;;;;3.37;2.30;;;;;;;15.88;100.00;95972.91;4935812;29;20897;-76
2021/08/22 03:09:15;;;;;;;3.03;2.50;;;;;;;15.84;100.00;95976.72;4934696;29;20490;-76
2021/08/22 03:11:41;;;;;;;4.00;2.47;;;;;;;15.86;100.00;95969.56;4935783;29;20805;-76
2021/08/22 03:14:08;;;;;;;5.20;2.70;;;;;;;15.83;100.00;95971.59;4935634;29;20423;-76
2021/08/22 03:16:33;;;;;;;4.07;2.90;;;;;;;15.81;100.00;95974.34;4935591;29;20972;-76
2021/08/22 03:18:59;;;;;;;3.90;2.60;;;;;;;15.77;100.00;95969.50;4935851;29;20513;-76
2021/08/22 03:21:24;;;;;;;3.72;2.55;;;;;;;15.79;100.00;95965.78;4935451;29;20510;-76
2021/08/22 03:23:50;;;;;;;4.97;2.97;;;;;;;15.71;100.00;95955.13;4933549;29;20914;-76
2021/08/22 03:26:15;;;;;;;7.87;2.93;;;;;;;15.73;100.00;95948.84;4935409;29;20612;-76
2021/08/22 03:28:41;;;;;;;5.43;2.70;;;;;;;15.75;100.00;95947.88;4935516;29;20461;-76
2021/08/22 03:31:08;;;;;;;4.80;2.60;;;;;;;15.79;100.00;95949.28;4935520;29;20959;-76
2021/08/22 03:33:33;;;;;;;3.72;2.55;;;;;;;15.80;100.00;95970.06;4935408;29;20507;-76
2021/08/22 03:35:58;;;;;;;3.42;2.83;;;;;;;15.82;100.00;95957.72;4935467;29;20498;-76
2021/08/22 03:38:24;;;;;;;3.67;2.50;;;;;;;15.85;100.00;95961.88;4935470;29;20834;-77
2021/08/22 03:40:50;;;;;;;3.53;2.73;;;;;;;15.96;100.00;95961.81;4935434;29;20427;-76
2021/08/22 03:43:15;;;;;;;4.43;2.40;;;;;;;15.98;100.00;95970.34;4935155;29;20412;-76
2021/08/22 03:45:40;;;;;;;3.30;2.63;;;;;;;16.04;100.00;95969.03;4934994;29;20845;-76
2021/08/22 03:48:07;;;;;;;5.50;2.83;;;;;;;16.05;100.00;95966.28;4935370;29;20423;-76
2021/08/22 03:50:33;;;;;;;3.92;2.88;;;;;;;16.12;100.00;95971.84;4933977;29;20459;-76
2021/08/22 03:52:58;;;;;;;3.88;2.78;;;;;;;16.18;100.00;95966.13;4933777;29;20855;-76
2021/08/22 03:55:24;;;;;;;3.20;2.63;;;;;;;16.21;100.00;95971.94;4933912;29;20957;-76
2021/08/22 03:57:49;;;;;;;3.97;2.53;;;;;;;16.15;100.00;95977.66;4934914;29;20451;-76
2021/08/22 04:00:16;;;;;;;3.85;2.70;;;;;;;16.19;100.00;95988.69;4933673;29;20474;-76
2021/08/22 04:02:42;;;;;;;4.07;2.60;;;;;;;16.20;100.00;95988.59;4935027;29;20475;-76
2021/08/22 04:05:11;;;;;;;4.88;3.20;;;;;;;16.24;100.00;95991.78;4933477;29;20431;-76
2021/08/22 04:07:38;;;;;;;4.17;2.80;;;;;;;16.28;100.00;95994.94;4934984;29;20510;-76
2021/08/22 04:10:04;;;;;;;4.68;2.80;;;;;;;16.24;100.00;95990.91;4935037;29;20431;-76
2021/08/22 04:12:30;;;;;;;3.28;2.85;;;;;;;16.24;100.00;95996.16;4934541;29;21131;-76
2021/08/22 04:14:55;;;;;;;4.67;2.83;;;;;;;16.12;100.00;95990.97;4934652;29;20771;-76
2021/08/22 04:17:20;;;;;;;3.90;2.70;;;;;;;16.17;100.00;95988.00;4933392;29;20494;-76
2021/08/22 04:19:46;;;;;;;3.97;2.55;;;;;;;16.20;100.00;95993.81;4934786;29;20487;-76
2021/08/22 04:22:13;;;;;;;4.23;2.70;;;;;;;16.23;100.00;95989.25;4934596;29;20454;-76
2021/08/22 04:24:38;;;;;;;3.33;2.55;;;;;;;16.12;100.00;95995.38;4933357;29;20427;-76
2021/08/22 04:27:04;;;;;;;4.33;2.57;;;;;;;16.11;100.00;95991.09;4934091;29;20789;-76
2021/08/22 04:29:32;;;;;;;4.18;3.03;;;;;;;15.98;100.00;95999.09;4934443;29;20467;-76
2021/08/22 04:31:58;;;;;;;3.87;2.70;;;;;;;15.93;100.00;95999.47;4934389;29;20431;-76
2021/08/22 04:34:23;;;;;;;5.63;2.70;;;;;;;15.98;100.00;95996.47;4932291;29;21033;-76
2021/08/22 04:36:49;;;;;;;4.20;2.80;;;;;;;16.04;100.00;95998.59;4934052;29;20430;-76
2021/08/22 04:39:18;;;;;;;2.97;2.57;;;;;;;16.10;100.00;95999.91;4934418;29;20423;-76
2021/08/22 04:41:44;;;;;;;5.75;3.53;;;;;;;16.13;100.00;96010.94;4932726;29;20420;-76
2021/08/22 04:44:10;;;;;;;4.35;2.83;;;;;;;16.12;100.00;96011.03;4932697;29;20433;-76
2021/08/22 04:46:35;;;;;;;3.57;3.10;;;;;;;16.20;100.00;96016.47;4934342;29;20784;-76
2021/08/22 04:49:01;;;;;;;4.10;3.08;;;;;;;16.23;100.00;96007.56;4934326;29;20972;-76
2021/08/22 04:51:26;;;;;;;3.37;3.00;;;;;;;16.28;100.00;96001.03;4934067;29;20530;-76
2021/08/22 04:53:52;;;;;;;3.40;2.80;;;;;;;16.40;100.00;95994.78;4934243;29;20458;-76
2021/08/22 04:56:18;;;;;;;3.95;2.88;;;;;;;16.39;100.00;96003.56;4933704;29;20431;-76
2021/08/22 04:58:44;;;;;;;5.47;3.22;;;;;;;16.18;100.00;96014.00;4932765;29;20487;-76
2021/08/22 05:01:09;;;;;;;3.60;3.20;;;;;;;16.08;100.00;96015.69;4934227;29;20893;-76
2021/08/22 05:03:35;;;;;;;3.73;3.00;;;;;;;16.05;100.00;96018.53;4932674;29;20463;-76
2021/08/22 05:06:00;;;;;;;3.60;3.17;;;;;;;16.17;100.00;96017.56;4933666;29;20436;-76
2021/08/22 05:08:25;;;;;;;3.33;2.90;;;;;;;16.24;100.00;96020.53;4933897;29;20482;-76
2021/08/22 05:10:53;;;;;;;5.40;2.97;;;;;;;16.32;100.00;96023.34;4933837;29;20423;-76
2021/08/22 05:13:20;;;;;;;6.05;3.03;;;;;;;16.34;100.00;96029.25;4933688;29;20427;-76
2021/08/22 05:15:46;;;;;;;4.23;3.00;;;;;;;16.36;100.00;96023.91;4932320;29;20468;-76
2021/08/22 05:18:11;;;;;;;3.83;2.90;;;;;;;16.38;100.00;96030.66;4933780;29;20510;-76
2021/08/22 05:20:37;;;;;;;4.10;2.97;;;;;;;16.41;100.00;96038.25;4933645;29;20925;-76
2021/08/22 05:23:02;;;;;;;3.80;2.95;;;;;;;16.27;100.00;96042.94;4933622;29;20511;-76
2021/08/22 05:25:28;;;;;;;4.75;2.70;;;;;;;16.28;100.00;96050.69;4933246;29;20580;-76
2021/08/22 05:27:53;;;;;;;3.90;3.00;;;;;;;16.10;100.00;96055.59;4937059;29;20426;-78
2021/08/22 05:30:20;;;;;;;3.70;2.87;;;;;;;15.99;100.00;96044.34;4925764;29;20431;-77
2021/08/22 05:32:45;;;;;;;4.30;2.83;;;;;;;15.99;100.00;96042.56;4934202;29;20451;-80
2021/08/22 05:35:11;;;;;;;2.80;2.42;;;;;;;16.07;100.00;96042.78;4944518;29;20423;-80
2021/08/22 05:37:36;;;;;;;3.25;2.78;;;;;;;16.22;100.00;96043.31;4940193;29;20428;-80
2021/08/22 05:40:02;;;;;;;3.97;3.10;;;;;;;16.36;100.00;96042.22;4939234;29;20455;-79
2021/08/22 05:42:28;;;;;;;4.13;3.03;;;;;;;16.45;100.00;96047.50;4940272;29;20720;-78
2021/08/22 05:44:53;;;;;;;4.47;3.10;;;;;;;16.49;100.00;96040.22;4938255;29;20846;-80
2021/08/22 05:47:20;;;;;;;14.38;3.50;;;;;;;16.51;100.00;96038.34;4943536;29;20435;-80
2021/08/22 05:49:47;;;;;;;5.22;3.45;;;;;;;16.54;100.00;96037.22;4938682;29;20420;-80
2021/08/22 05:52:13;;;;;;;3.97;3.03;;;;;;;16.57;100.00;96039.59;4935909;29;20486;-80
2021/08/22 05:54:39;;;;;;;5.38;3.00;;;;;;;16.37;100.00;96029.00;4943483;29;20845;-79
2021/08/22 05:57:05;;;;;;;4.35;3.40;;;;;;;16.48;100.00;96030.75;4947888;29;20426;-79
2021/08/22 05:59:30;;;;;;;4.65;3.35;;;;;;;16.55;100.00;96034.50;4952264;29;20424;-80
2021/08/22 06:01:56;;;;;;;4.07;3.47;;;;;;;16.67;100.00;96030.88;4947970;29;20762;-78
2021/08/22 06:04:23;;;;;;;4.77;3.20;;;;;;;16.79;100.00;96043.91;4941657;29;20423;-79
2021/08/22 06:06:48;;;;;;;4.65;3.17;;;;;;;16.64;100.00;96046.81;4938038;29;20933;-79
2021/08/22 06:09:13;;;;;;;6.53;3.57;;;;;;;16.50;100.00;96039.31;4947007;29;20425;-79
2021/08/22 06:11:39;;;;;;;4.28;3.30;;;;;;;16.69;100.00;96039.44;4959203;29;20966;-79
2021/08/22 06:14:04;;;;;;;5.50;3.23;;;;;;;16.69;100.00;96041.22;4962799;29;20429;-78
2021/08/22 06:16:30;;;;;;;4.20;3.10;;;;;;;16.62;100.00;96033.06;4959673;28;20449;-79
2021/08/22 06:18:57;;;;;;;5.75;3.45;;;;;;;16.55;100.00;96042.34;4957734;28;20457;-79
2021/08/22 06:21:24;;;;;;;4.57;2.90;;;;;;;16.62;100.00;96040.91;4957435;28;20422;-79
2021/08/22 06:23:57;;;;;;;3.40;2.80;;;;;;;16.75;100.00;96042.50;4939106;29;20423;-80
2021/08/22 06:26:25;;;;;;;6.57;3.22;;;;;;;16.70;100.00;96048.09;4944891;29;20433;-79
2021/08/22 06:29:16;;;;;;;3.63;3.00;;;;;;;16.69;100.00;96057.75;4945128;29;20433;-80
2021/08/22 06:32:23;;;;;;;5.38;3.30;;;;;;;16.62;100.00;96053.16;4921544;29;20429;-79
2021/08/22 06:35:26;;;;;;;4.07;3.47;;;;;;;16.64;100.00;96040.75;4925908;29;20452;-78
2021/08/22 06:38:25;;;;;;;3.73;3.23;;;;;;;16.69;100.00;96043.84;4952608;29;20479;-79
2021/08/22 06:41:11;;;;;;;3.78;3.05;;;;;;;16.81;100.00;96036.78;4941204;29;20559;-80
2021/08/22 06:43:36;;;;;;;4.30;3.53;;;;;;;16.79;100.00;96042.13;4919627;29;20461;-79
2021/08/22 06:46:02;;;;;;;7.23;3.13;;;;;;;16.75;100.00;96047.75;4923558;29;20482;-79
2021/08/22 06:48:27;;;;;;;3.60;3.30;;;;;;;16.90;100.00;96051.69;4925697;29;20417;-79
2021/08/22 06:50:53;;;;;;;4.45;3.80;;;;;;;16.77;100.00;96057.13;4921125;29;20855;-76
2021/08/22 06:53:20;;;;;;;5.40;3.80;;;;;;;16.76;100.00;96052.88;4927571;29;20433;-78
2021/08/22 06:55:46;;;;;;;4.90;3.92;;;;;;;16.73;100.00;96055.69;4926801;29;20436;-80
2021/08/22 06:58:21;;;;;;;5.07;3.50;;;;;;;16.77;100.00;96056.31;4922129;29;20429;-81
2021/08/22 07:00:47;;;;;;;4.10;3.70;;;;;;;16.85;100.00;96052.09;4947994;29;20423;-81
2021/08/22 07:03:50;;;;;;;8.97;4.07;;;;;;;16.91;100.00;96056.00;4950108;29;20451;-80
2021/08/22 07:06:24;;;;;;;4.53;3.55;;;;;;;17.01;100.00;96051.63;4944884;29;20431;-81
2021/08/22 07:09:08;;;;;;;4.22;3.65;;;;;;;17.08;100.00;96051.94;4953364;29;20443;-81
2021/08/22 07:11:37;;;;;;;5.18;3.90;;;;;;;17.12;100.00;96053.34;4944908;29;20495;-81
2021/08/22 07:14:03;;;;;;;4.90;3.85;;;;;;;17.11;100.00;96054.31;4945937;29;20423;-81
2021/08/22 07:16:28;;;;;;;5.33;3.83;;;;;;;17.13;100.00;96047.13;4944083;29;20491;-81
2021/08/22 07:18:54;;;;;;;6.47;4.03;;;;;;;17.12;100.00;96040.25;4943878;29;20450;-81
2021/08/22 07:21:20;;;;;;;6.38;4.13;;;;;;;17.13;100.00;96037.53;4942842;29;20431;-81
2021/08/22 07:23:45;;;;;;;4.80;3.60;;;;;;;17.19;100.00;96044.00;4943730;29;20424;-81
2021/08/22 07:26:12;;;;;;;8.63;4.40;;;;;;;17.26;100.00;96046.94;4944003;29;20428;-81
2021/08/22 07:28:38;;;;;;;4.55;3.80;;;;;;;17.46;100.00;96053.91;4937669;29;20417;-82
2021/08/22 07:39:40;;;;;;;4.63;3.70;;;;;;;17.65;100.00;96061.03;4807266;29;21105;-79
2021/08/22 07:42:00;;;;;;;8.52;4.13;;;;;;;17.58;100.00;96058.13;4876687;29;20439;-81
2021/08/22 07:44:25;;;;;;;4.63;3.85;;;;;;;17.48;100.00;96054.63;4917346;29;20879;-80
2021/08/22 07:46:51;;;;;;;5.32;4.10;;;;;;;17.47;100.00;96060.84;4918571;29;20429;-81
2021/08/22 07:49:19;;;;;;;4.43;3.60;;;;;;;17.59;100.00;96058.94;4918151;29;20990;-80
2021/08/22 07:51:44;;;;;;;4.55;3.40;;;;;;;17.72;100.00;96059.53;4917231;29;20436;-74
2021/08/22 07:54:10;;;;;;;6.87;4.13;;;;;;;17.82;100.00;96054.34;4917730;29;20489;-81
2021/08/22 07:56:39;;;;;;;4.13;3.73;;;;;;;17.91;100.00;96058.81;4917984;29;20501;-79
2021/08/22 07:59:05;;;;;;;6.40;3.95;;;;;;;18.02;100.00;96063.94;4926177;29;20433;-79
2021/08/22 08:01:31;;;;;;;5.88;4.10;;;;;;;18.11;100.00;96059.66;4920265;29;20986;-80
2021/08/22 08:03:56;;;;;;;4.35;3.58;;;;;;;18.17;100.00;96055.66;4919453;29;20464;-79
2021/08/22 08:06:22;;;;;;;4.97;3.87;;;;;;;18.27;100.00;96061.75;4918958;29;20520;-79
2021/08/22 08:09:04;;;;;;;4.73;4.20;;;;;;;18.41;100.00;96069.22;4928059;29;20444;-81
2021/08/22 08:11:30;;;;;;;6.28;4.85;;;;;;;18.38;100.00;96062.44;4914722;29;20711;-80
2021/08/22 08:13:55;;;;;;;5.93;4.30;;;;;;;18.47;100.00;96050.31;4917472;29;20429;-79
2021/08/22 08:16:22;;;;;;;4.97;4.47;;;;;;;18.57;100.00;96059.00;4916865;29;20436;-78
2021/08/22 08:18:48;;;;;;;5.53;4.22;;;;;;;18.64;100.00;96061.91;4918324;29;20916;-80
2021/08/22 08:21:13;;;;;;;8.07;4.13;;;;;;;18.66;100.00;96065.22;4919359;29;20424;-80
2021/08/22 08:23:38;;;;;;;4.90;4.22;;;;;;;18.67;100.00;96060.78;4919050;29;20459;-81
2021/08/22 08:26:04;;;;;;;5.27;4.40;;;;;;;18.74;100.00;96068.00;4917663;29;20761;-82
2021/08/22 08:28:31;;;;;;;4.63;4.10;;;;;;;18.83;100.00;96072.41;4920228;29;20437;-79
2021/08/22 08:30:56;;;;;;;5.72;4.20;;;;;;;18.66;100.00;96074.88;4935450;29;20556;-80
2021/08/22 08:33:23;;;;;;;7.07;4.78;;;;;;;18.68;100.00;96079.00;4937379;29;20432;-80
2021/08/22 08:35:49;;;;;;;4.60;4.07;;;;;;;18.68;100.00;96072.94;4939999;29;20431;-79
2021/08/22 08:38:14;;;;;;;7.72;4.43;;;;;;;18.67;100.00;96074.75;4936087;29;20570;-79
2021/08/22 08:40:40;;;;;;;6.10;4.10;;;;;;;18.82;100.00;96070.75;4934925;29;20432;-79
2021/08/22 08:43:06;;;;;;;4.30;3.80;;;;;;;19.04;100.00;96081.91;4934514;29;20434;-79
2021/08/22 08:45:49;;;;;;;8.03;3.90;;;;;;;19.07;100.00;96076.41;4934188;29;20438;-76
2021/08/22 08:48:18;;;;;;;5.88;4.28;;;;;;;19.15;100.00;96076.50;4936490;29;20479;-77
2021/08/22 08:50:48;;;;;;;5.43;4.05;;;;;;;19.14;100.00;96074.03;4933622;29;20429;-77
2021/08/22 08:53:13;;;;;;;7.93;4.10;;;;;;;19.20;100.00;96081.31;4957742;23;20435;-76
2021/08/22 08:55:39;;;;;;;5.43;4.15;;;;;;;19.31;100.00;96084.59;4932207;29;20523;-77
2021/08/22 08:58:05;;;;;;;5.93;3.80;;;;;;;19.41;100.00;96084.59;4934717;29;20825;-77
2021/08/22 09:00:33;;;;;;;5.78;4.00;;;;;;;19.34;100.00;96081.69;4934774;29;20434;-78
2021/08/22 09:03:00;;;;;;;7.13;4.15;;;;;;;19.45;100.00;96082.50;4935005;29;20929;-78
2021/08/22 09:05:50;;;;;;;7.60;4.28;;;;;;;19.57;100.00;96082.19;4917857;29;20433;-78
2021/08/22 09:09:00;;;;;;;5.13;3.60;;;;;;;19.86;100.00;96078.63;4879272;29;20444;-77
2021/08/22 09:11:58;;;;;;;6.13;4.50;;;;;;;20.18;100.00;96074.72;4914450;29;20448;-76
2021/08/22 09:15:01;;;;;;;5.05;4.57;;;;;;;20.49;97.50;96073.41;4914482;29;20843;-76
2021/08/22 09:18:14;;;;;;;5.83;4.17;;;;;;;20.62;93.92;96080.13;4915889;29;20468;-78
2021/08/22 09:21:15;;;;;;;6.80;4.07;;;;;;;20.92;94.08;96071.00;4913820;29;20874;-77
2021/08/22 09:24:17;;;;;;;4.87;4.33;;;;;;;20.70;92.24;96072.31;4915432;29;20961;-77
2021/08/22 09:27:16;;;;;;;5.03;4.15;;;;;;;20.33;91.39;96077.69;4912977;29;20425;-76
2021/08/22 09:30:14;;;;;;;6.78;3.80;;;;;;;20.39;94.78;96074.44;4911185;29;20448;-76
2021/08/22 09:33:18;;;;;;;5.55;4.30;;;;;;;20.28;94.29;96065.81;4912827;29;20485;-76
2021/08/22 09:36:21;;;;;;;6.25;4.75;;;;;;;20.29;94.68;96066.63;4913645;29;20441;-77
2021/08/22 09:39:14;;;;;;;6.03;4.68;;;;;;;20.01;93.33;96060.56;4915763;29;20795;-76
2021/08/22 09:42:16;;;;;;;5.28;4.57;;;;;;;20.02;96.66;96070.09;4915385;29;20433;-76
2021/08/22 09:45:21;;;;;;;7.88;4.68;;;;;;;19.76;92.40;96072.59;4913902;29;20940;-76
2021/08/22 09:48:35;;;;;;;5.13;4.40;;;;;;;19.68;91.12;96072.50;4913828;29;20527;-75
2021/08/22 09:51:45;;;;;;;4.70;4.13;;;;;;;19.55;91.57;96072.81;4914925;29;20421;-76
2021/08/22 09:54:52;;;;;;;6.35;5.03;;;;;;;19.46;92.98;96076.28;4915142;29;20440;-75
2021/08/22 09:57:55;;;;;;;6.43;4.70;;;;;;;19.54;92.44;96082.50;4915101;29;20436;-76
2021/08/22 10:01:05;;;;;;;5.28;4.25;;;;;;;19.32;92.34;96082.84;4913347;29;20444;-75
2021/08/22 10:04:06;;;;;;;5.10;4.57;;;;;;;19.30;93.25;96079.50;4915389;29;20887;-76
2021/08/22 10:06:43;;;;;;;5.45;4.38;;;;;;;19.25;93.65;96093.06;4915223;29;21122;-77
2021/08/22 10:09:11;;;;;;;5.03;4.30;;;;;;;19.30;94.56;96087.38;4919504;29;20432;-77
2021/08/22 10:11:39;;;;;;;5.65;4.68;;;;;;;19.25;93.94;96090.44;4919538;29;20443;-77
2021/08/22 10:14:09;;;;;;;6.32;4.90;;;;;;;19.33;93.25;96090.56;4919345;29;20433;-77
2021/08/22 10:16:34;;;;;;;4.78;4.30;;;;;;;19.37;95.04;96091.09;4917864;29;20741;-77
2021/08/22 10:19:04;;;;;;;5.67;4.60;;;;;;;19.42;96.58;96090.66;4919074;29;20484;-77
2021/08/22 10:21:29;;;;;;;5.63;4.50;;;;;;;19.42;95.03;96086.25;4919023;29;20425;-77
2021/08/22 10:23:55;;;;;;;7.93;4.80;;;;;;;19.43;95.19;96090.53;4918482;29;20990;-77
2021/08/22 10:26:56;;;;;;;5.75;4.70;;;;;;;19.55;96.00;96085.94;4917716;29;20452;-77
2021/08/22 10:29:23;;;;;;;5.10;4.50;;;;;;;19.62;98.21;96070.44;4918053;29;20465;-78
2021/08/22 10:32:06;;;;;;;8.13;4.80;;;;;;;19.49;96.71;96063.69;4918030;29;20433;-76
2021/08/22 10:34:32;;;;;;;5.40;4.40;;;;;;;19.52;94.23;96058.16;4919261;29;20949;-76
2021/08/22 10:36:58;;;;;;;7.20;4.47;;;;;;;19.51;90.25;96068.81;4917750;29;20445;-77
2021/08/22 10:39:27;;;;;;;5.70;4.60;;;;;;;19.50;91.15;96067.13;4921428;29;20496;-77
2021/08/22 10:41:55;;;;;;;5.65;5.10;;;;;;;19.50;90.61;96073.22;4920264;29;20433;-77
2021/08/22 10:44:36;;;;;;;4.93;4.40;;;;;;;19.41;91.77;96068.84;4921173;29;20433;-76
2021/08/22 10:47:03;;;;;;;7.55;4.28;;;;;;;19.36;93.07;96063.19;4921005;29;20432;-77
2021/08/22 10:49:58;;;;;;;5.03;4.55;;;;;;;19.31;97.26;96058.34;4919591;29;20451;-77
2021/08/22 10:52:24;;;;;;;6.07;4.53;;;;;;;19.21;93.90;96064.63;4920137;29;20437;-77
2021/08/22 10:55:30;;;;;;;5.50;4.80;;;;;;;19.34;94.79;96068.56;4921306;29;20433;-77
2021/08/22 10:57:57;;;;;;;4.97;4.47;;;;;;;19.44;93.38;96063.31;4920074;29;20497;-77
2021/08/22 11:00:25;;;;;;;5.75;4.55;;;;;;;19.41;93.23;96063.59;4921396;29;20520;-77
2021/08/22 11:02:51;;;;;;;4.68;4.28;;;;;;;19.40;94.06;96069.81;4919807;29;21049;-77
2021/08/22 11:05:18;;;;;;;6.30;4.47;;;;;;;19.31;92.96;96074.09;4920659;29;20430;-77
2021/08/22 11:07:43;;;;;;;7.70;4.80;;;;;;;19.38;93.97;96068.28;4919880;29;20444;-77
2021/08/22 11:10:11;;;;;;;5.47;4.43;;;;;;;19.24;100.00;96061.69;4921041;29;20425;-77
2021/08/22 11:12:38;;;;;;;5.25;4.40;;;;;;;18.93;100.00;96072.41;4921042;29;20444;-77
2021/08/22 11:15:07;;;;;;;5.80;4.85;;;;;;;18.76;100.00;96073.97;4919745;29;20437;-75
2021/08/22 11:17:34;;;;;;;5.28;4.38;;;;;;;18.77;100.00;96069.53;4919329;29;20477;-77
2021/08/22 11:20:08;;;;;;;7.07;4.88;;;;;;;18.79;100.00;96073.66;4919671;29;20488;-77
2021/08/22 11:22:33;;;;;;;5.28;4.63;;;;;;;18.89;100.00;96078.91;4919161;29;20508;-77
2021/08/22 11:24:59;;;;;;;5.40;4.53;;;;;;;18.89;100.00;96081.53;4921066;29;20534;-77
2021/08/22 11:27:26;;;;;;;4.73;4.23;;;;;;;18.88;100.00;96073.81;4916245;29;20468;-76
2021/08/22 11:29:53;;;;;;;7.82;4.03;;;;;;;19.24;100.00;96062.50;4920221;29;20426;-77
2021/08/22 11:32:20;;;;;;;4.97;3.50;;;;;;;19.10;100.00;96068.25;4918664;29;20436;-76
2021/08/22 11:34:45;;;;;;;3.90;3.28;;;;;;;19.09;100.00;96064.75;4917809;29;20836;-76
2021/08/22 11:37:14;;;;;;;3.63;3.10;;;;;;;19.13;100.00;96065.31;4916832;29;20440;-77
2021/08/22 11:39:40;;;;;;;3.88;3.20;;;;;;;19.05;100.00;96060.75;4918799;29;20975;-77
2021/08/22 11:42:05;;;;;;;3.53;3.00;;;;;;;18.70;100.00;96060.53;4918110;29;20425;-76
2021/08/22 11:44:31;;;;;;;6.88;3.13;;;;;;;18.57;100.00;96071.28;4915810;29;20440;-77
2021/08/22 11:46:57;;;;;;;3.93;3.20;;;;;;;18.10;100.00;96073.75;4918285;29;20492;-76
2021/08/22 11:49:24;;;;;;;5.07;3.30;;;;;;;17.96;100.00;96084.59;4918390;29;20951;-76